Time;durP1;ratioP1;P1;durP2;ratioP2;P2;SDS_P1;SDS_P2;PMS_P1;PMS_P2;Temp;Humidity;BMP_temperature;BMP_pressure;BME280_temperature;BME280_humidity;BME280_pressure;Samples;Min_cycle;Max_cycle;Signal;HPM_P1;HPM_P2
2023/05/21 00:00:47;;;;;;;;;;;15.60;93.60;;;;;;5109992;28;19926;-67
2023/05/21 00:03:14;;;;;;;;;;;15.70;93.10;;;;;;5104115;28;19924;-67
2023/05/21 00:05:42;;;;;;;;;;;15.80;93.30;;;;;;5113494;28;19915;-68
2023/05/21 00:08:08;;;;;;;;;;;16.00;92.80;;;;;;5110760;28;19911;-67
2023/05/21 00:10:35;;;;;;;;;;;16.10;92.90;;;;;;5111832;28;19908;-66
2023/05/21 00:13:02;;;;;;;;;;;16.10;92.10;;;;;;5113365;28;19966;-66
2023/05/21 00:15:28;;;;;;;;;;;16.20;91.90;;;;;;5113604;28;19912;-65
2023/05/21 00:17:55;;;;;;;;;;;16.20;91.90;;;;;;5111630;28;20272;-65
2023/05/21 00:20:22;;;;;;;;;;;16.20;91.90;;;;;;5111192;28;19947;-66
2023/05/21 00:22:48;;;;;;;;;;;16.30;92.00;;;;;;5113045;28;19919;-66
2023/05/21 00:25:15;;;;;;;;;;;16.30;91.70;;;;;;5112967;28;19908;-66
2023/05/21 00:27:42;;;;;;;;;;;16.40;91.60;;;;;;5110815;28;19961;-66
2023/05/21 00:30:08;;;;;;;;;;;16.40;91.80;;;;;;5112375;28;19918;-64
2023/05/21 00:32:35;;;;;;;;;;;16.50;92.00;;;;;;5113192;28;19908;-65
2023/05/21 00:35:02;;;;;;;;;;;16.50;91.60;;;;;;5113240;28;19986;-65
2023/05/21 00:37:32;;;;;;;;;;;16.60;91.50;;;;;;5110728;28;19919;-66
2023/05/21 00:39:58;;;;;;;;;;;16.60;91.40;;;;;;5106646;28;19965;-64
2023/05/21 00:42:26;;;;;;;;;;;16.70;91.60;;;;;;5113038;28;20007;-66
2023/05/21 00:44:56;;;;;;;;;;;16.60;91.40;;;;;;5109992;28;21369;-65
2023/05/21 00:47:23;;;;;;;;;;;16.70;91.30;;;;;;5111914;28;19911;-66
2023/05/21 00:49:52;;;;;;;;;;;16.80;91.00;;;;;;5113179;28;19908;-66
2023/05/21 00:52:19;;;;;;;;;;;16.80;91.10;;;;;;5113152;28;19919;-67
2023/05/21 00:54:46;;;;;;;;;;;17.00;91.10;;;;;;5108656;28;19934;-66
2023/05/21 00:57:13;;;;;;;;;;;17.00;90.90;;;;;;5110733;28;19919;-66
2023/05/21 00:59:40;;;;;;;;;;;17.10;91.20;;;;;;5105759;28;19912;-68
2023/05/21 01:02:08;;;;;;;;;;;17.20;90.90;;;;;;5104661;28;19896;-68
2023/05/21 01:04:35;;;;;;;;;;;17.30;90.90;;;;;;5092929;28;20381;-64
2023/05/21 01:07:01;;;;;;;;;;;17.30;91.00;;;;;;5093069;28;19953;-66
2023/05/21 01:09:28;;;;;;;;;;;17.50;91.00;;;;;;5112831;28;19991;-64
2023/05/21 01:11:55;;;;;;;;;;;17.50;90.70;;;;;;5103679;28;19919;-64
2023/05/21 01:14:23;;;;;;;;;;;17.50;90.70;;;;;;5096153;28;19962;-66
2023/05/21 01:16:51;;;;;;;;;;;17.60;90.80;;;;;;5090228;28;19912;-66
2023/05/21 01:19:22;;;;;;;;;;;17.70;90.80;;;;;;5112228;28;19919;-69
2023/05/21 01:21:52;;;;;;;;;;;17.70;90.30;;;;;;5108208;28;20034;-67
2023/05/21 01:24:18;;;;;;;;;;;17.80;90.40;;;;;;5101328;28;20284;-68
2023/05/21 01:26:45;;;;;;;;;;;17.80;90.80;;;;;;5093578;28;19915;-69
2023/05/21 01:29:13;;;;;;;;;;;17.90;90.00;;;;;;5108539;28;19907;-68
2023/05/21 01:31:39;;;;;;;;;;;18.00;89.70;;;;;;5110113;28;19912;-67
2023/05/21 01:34:07;;;;;;;;;;;18.00;89.90;;;;;;5096811;28;19908;-68
2023/05/21 01:36:39;;;;;;;;;;;18.00;90.10;;;;;;5109862;28;19919;-69
2023/05/21 01:39:08;;;;;;;;;;;18.10;89.50;;;;;;5115516;28;19942;-67
2023/05/21 01:41:38;;;;;;;;;;;18.30;89.90;;;;;;5114560;28;19945;-68
2023/05/21 01:44:06;;;;;;;;;;;18.40;89.30;;;;;;5108740;28;19932;-68
2023/05/21 01:46:35;;;;;;;;;;;18.30;88.40;;;;;;5113503;28;19911;-70
2023/05/21 01:49:02;;;;;;;;;;;18.30;89.40;;;;;;5104938;28;20311;-69
2023/05/21 01:51:29;;;;;;;;;;;18.30;88.60;;;;;;5110885;28;19920;-68
2023/05/21 01:53:56;;;;;;;;;;;18.30;87.80;;;;;;5109190;27;20360;-68
2023/05/21 01:56:24;;;;;;;;;;;18.40;89.10;;;;;;5110876;28;19937;-70
2023/05/21 01:58:51;;;;;;;;;;;18.60;89.50;;;;;;5096883;27;19950;-68
2023/05/21 02:01:19;;;;;;;;;;;18.70;88.40;;;;;;5096530;28;19912;-68
2023/05/21 02:03:45;;;;;;;;;;;18.80;88.20;;;;;;5103339;28;20433;-69
2023/05/21 02:06:12;;;;;;;;;;;18.90;87.80;;;;;;5113379;28;19915;-64
2023/05/21 02:08:39;;;;;;;;;;;18.90;87.40;;;;;;5116463;28;20320;-67
2023/05/21 02:11:05;;;;;;;;;;;18.80;87.20;;;;;;5115251;28;19920;-65
2023/05/21 02:13:32;;;;;;;;;;;18.80;88.30;;;;;;5097305;28;19916;-67
2023/05/21 02:16:00;;;;;;;;;;;18.80;87.80;;;;;;5115539;28;20364;-67
2023/05/21 02:18:28;;;;;;;;;;;18.80;88.40;;;;;;5115407;28;19912;-66
2023/05/21 02:20:54;;;;;;;;;;;18.80;87.80;;;;;;5115824;28;20365;-65
2023/05/21 02:23:21;;;;;;;;;;;18.80;88.40;;;;;;5090922;28;20064;-67
2023/05/21 02:25:48;;;;;;;;;;;18.80;88.40;;;;;;5110244;28;20009;-66
2023/05/21 02:28:14;;;;;;;;;;;18.70;88.80;;;;;;5095705;28;19961;-66
2023/05/21 02:30:41;;;;;;;;;;;18.80;88.80;;;;;;5103161;28;20252;-67
2023/05/21 02:33:07;;;;;;;;;;;18.80;89.10;;;;;;5113574;28;20037;-67
2023/05/21 02:35:34;;;;;;;;;;;18.80;89.70;;;;;;5077765;28;20341;-65
2023/05/21 02:38:01;;;;;;;;;;;18.90;89.20;;;;;;5102271;28;20312;-66
2023/05/21 02:40:28;;;;;;;;;;;19.00;88.80;;;;;;5104657;28;19920;-66
2023/05/21 02:42:54;;;;;;;;;;;19.00;88.90;;;;;;5099557;28;19920;-66
2023/05/21 02:45:21;;;;;;;;;;;19.20;88.60;;;;;;5104400;28;19996;-66
2023/05/21 02:47:48;;;;;;;;;;;19.40;87.40;;;;;;5101193;28;19918;-67
2023/05/21 02:50:15;;;;;;;;;;;19.60;87.00;;;;;;5112110;28;20258;-66
2023/05/21 02:52:41;;;;;;;;;;;19.70;87.50;;;;;;5111740;28;19908;-66
2023/05/21 02:55:08;;;;;;;;;;;19.90;86.50;;;;;;5110649;27;19916;-67
2023/05/21 02:57:35;;;;;;;;;;;20.20;85.10;;;;;;5097644;28;19912;-66
2023/05/21 03:00:02;;;;;;;;;;;20.60;85.00;;;;;;5098710;28;19956;-65
2023/05/21 03:02:29;;;;;;;;;;;21.10;83.40;;;;;;5079507;28;19924;-65
2023/05/21 03:04:56;;;;;;;;;;;21.60;81.20;;;;;;5112710;28;19908;-66
2023/05/21 03:07:23;;;;;;;;;;;22.10;80.40;;;;;;5108958;28;19926;-66
2023/05/21 03:09:50;;;;;;;;;;;22.40;79.30;;;;;;5106264;28;20005;-67
2023/05/21 03:12:16;;;;;;;;;;;22.40;78.40;;;;;;5102239;27;19916;-67
2023/05/21 03:14:45;;;;;;;;;;;22.10;79.60;;;;;;5094266;28;19919;-67
2023/05/21 03:17:13;;;;;;;;;;;21.90;78.60;;;;;;5096024;28;19904;-65
2023/05/21 03:19:41;;;;;;;;;;;21.60;79.50;;;;;;5114346;28;20403;-64
2023/05/21 03:22:07;;;;;;;;;;;21.30;80.30;;;;;;5114554;28;19914;-65
2023/05/21 03:24:35;;;;;;;;;;;21.30;80.30;;;;;;5114398;28;19915;-64
2023/05/21 03:27:02;;;;;;;;;;;21.80;78.80;;;;;;5111749;28;20390;-65
2023/05/21 03:29:28;;;;;;;;;;;22.60;77.60;;;;;;5111884;28;20006;-66
2023/05/21 03:31:55;;;;;;;;;;;23.60;74.50;;;;;;5094041;28;20391;-64
2023/05/21 03:34:22;;;;;;;;;;;24.20;72.80;;;;;;5093847;28;19916;-65
2023/05/21 03:36:49;;;;;;;;;;;25.00;71.70;;;;;;5094222;28;19916;-65
2023/05/21 03:39:16;;;;;;;;;;;25.90;69.60;;;;;;5111539;28;19912;-66
2023/05/21 03:41:43;;;;;;;;;;;26.10;67.70;;;;;;5109652;28;19981;-66
2023/05/21 03:44:09;;;;;;;;;;;26.50;67.20;;;;;;5094200;28;20451;-65
2023/05/21 03:46:36;;;;;;;;;;;27.10;65.90;;;;;;5093960;28;19943;-65
2023/05/21 03:49:03;;;;;;;;;;;27.40;65.90;;;;;;5093824;28;20374;-64
2023/05/21 03:51:30;;;;;;;;;;;27.90;63.70;;;;;;5093579;28;19942;-67
2023/05/21 03:54:00;;;;;;;;;;;28.50;63.10;;;;;;5101065;28;20887;-65
2023/05/21 03:56:26;;;;;;;;;;;28.60;61.60;;;;;;5112959;28;19908;-65
2023/05/21 03:58:53;;;;;;;;;;;28.00;61.80;;;;;;5112627;28;19946;-64
2023/05/21 04:01:20;;;;;;;;;;;27.20;62.40;;;;;;5112398;28;20096;-65
2023/05/21 04:03:46;;;;;;;;;;;26.50;63.30;;;;;;5112048;28;20376;-65
2023/05/21 04:06:14;;;;;;;;;;;26.10;63.80;;;;;;5099893;28;19912;-66
2023/05/21 04:08:41;;;;;;;;;;;25.80;64.50;;;;;;5086465;28;20257;-66
2023/05/21 04:11:08;;;;;;;;;;;25.40;65.00;;;;;;5111900;28;19908;-66
2023/05/21 04:13:35;;;;;;;;;;;25.10;65.90;;;;;;5108637;28;19912;-66
2023/05/21 04:16:01;;;;;;;;;;;24.50;67.30;;;;;;5112253;28;19991;-66
2023/05/21 04:18:28;;;;;;;;;;;23.40;68.90;;;;;;5096668;28;19922;-66
2023/05/21 04:20:54;;;;;;;;;;;22.50;70.90;;;;;;5091476;28;19915;-66
2023/05/21 04:23:22;;;;;;;;;;;21.60;72.10;;;;;;5100029;28;19921;-64
2023/05/21 04:25:49;;;;;;;;;;;21.10;74.20;;;;;;5091040;28;20053;-66
2023/05/21 04:28:18;;;;;;;;;;;20.70;73.80;;;;;;5091844;28;20073;-65
2023/05/21 04:30:46;;;;;;;;;;;20.30;74.60;;;;;;5093267;28;20314;-66
2023/05/21 04:33:16;;;;;;;;;;;20.10;75.50;;;;;;5099402;28;19937;-65
2023/05/21 04:35:43;;;;;;;;;;;19.90;76.20;;;;;;5112887;28;19989;-65
2023/05/21 04:38:11;;;;;;;;;;;19.70;76.80;;;;;;5104749;28;19934;-65
2023/05/21 04:40:39;;;;;;;;;;;19.70;76.50;;;;;;5092863;28;19950;-66
2023/05/21 04:43:06;;;;;;;;;;;19.40;77.00;;;;;;5093073;28;20025;-66
2023/05/21 04:45:33;;;;;;;;;;;19.40;77.50;;;;;;5094220;28;19916;-68
2023/05/21 04:48:00;;;;;;;;;;;19.30;78.50;;;;;;5092780;28;19908;-68
2023/05/21 04:50:29;;;;;;;;;;;19.20;77.60;;;;;;5092987;28;19908;-66
2023/05/21 04:52:57;;;;;;;;;;;19.10;77.80;;;;;;5098630;28;19941;-66
2023/05/21 04:55:24;;;;;;;;;;;19.00;78.40;;;;;;5113030;28;19980;-66
2023/05/21 04:57:51;;;;;;;;;;;19.00;79.40;;;;;;5100823;28;19927;-65
2023/05/21 05:00:18;;;;;;;;;;;18.90;79.30;;;;;;5092432;28;20360;-66
2023/05/21 05:02:45;;;;;;;;;;;19.00;79.70;;;;;;5092192;28;19927;-66
2023/05/21 05:05:11;;;;;;;;;;;18.90;79.60;;;;;;5092901;28;20379;-66
2023/05/21 05:07:38;;;;;;;;;;;19.00;79.90;;;;;;5096329;28;19919;-65
2023/05/21 05:10:05;;;;;;;;;;;19.10;80.50;;;;;;5099673;28;19923;-66
2023/05/21 05:12:31;;;;;;;;;;;19.10;79.20;;;;;;5097667;28;20374;-66
2023/05/21 05:14:58;;;;;;;;;;;19.20;79.50;;;;;;5113031;28;20036;-66
2023/05/21 05:17:24;;;;;;;;;;;19.30;79.60;;;;;;5113080;28;19915;-66
2023/05/21 05:19:52;;;;;;;;;;;19.40;80.20;;;;;;5112865;28;20368;-67
2023/05/21 05:22:18;;;;;;;;;;;19.20;79.60;;;;;;5099527;28;19912;-66
2023/05/21 05:24:45;;;;;;;;;;;19.20;79.60;;;;;;5092598;28;20430;-65
2023/05/21 05:27:11;;;;;;;;;;;19.10;79.60;;;;;;5092722;28;19908;-65
2023/05/21 05:29:38;;;;;;;;;;;19.10;80.50;;;;;;5092451;28;19912;-65
2023/05/21 05:32:05;;;;;;;;;;;19.10;79.20;;;;;;5092840;28;20373;-65
2023/05/21 05:34:31;;;;;;;;;;;19.10;79.60;;;;;;5109383;28;19915;-65
2023/05/21 05:36:58;;;;;;;;;;;19.10;80.50;;;;;;5112925;28;19919;-65
2023/05/21 05:39:25;;;;;;;;;;;19.20;79.60;;;;;;5103117;28;19911;-65
2023/05/21 05:41:51;;;;;;;;;;;19.40;79.60;;;;;;5112727;28;19920;-64
2023/05/21 05:44:18;;;;;;;;;;;19.40;79.40;;;;;;5112539;28;19949;-63
2023/05/21 05:46:44;;;;;;;;;;;19.50;79.40;;;;;;5093313;28;19919;-65
2023/05/21 05:49:12;;;;;;;;;;;19.70;78.60;;;;;;5092199;28;19908;-65
2023/05/21 05:51:40;;;;;;;;;;;19.80;79.40;;;;;;5092243;28;19956;-65
2023/05/21 05:54:06;;;;;;;;;;;20.00;78.80;;;;;;5092433;28;19974;-64
2023/05/21 05:56:33;;;;;;;;;;;20.20;78.20;;;;;;5095235;28;19995;-64
2023/05/21 05:59:00;;;;;;;;;;;20.30;77.50;;;;;;5112128;28;20462;-65
2023/05/21 06:01:26;;;;;;;;;;;20.70;77.60;;;;;;5112787;28;19915;-66
2023/05/21 06:03:53;;;;;;;;;;;20.80;76.10;;;;;;5107529;28;19920;-66
2023/05/21 06:06:20;;;;;;;;;;;20.60;76.20;;;;;;5096322;28;19912;-65
2023/05/21 06:08:46;;;;;;;;;;;20.50;77.10;;;;;;5098858;28;19913;-66
2023/05/21 06:11:15;;;;;;;;;;;20.30;77.00;;;;;;5105070;28;19911;-66
2023/05/21 06:13:42;;;;;;;;;;;20.30;77.20;;;;;;5114798;28;19907;-66
2023/05/21 06:16:10;;;;;;;;;;;20.10;77.90;;;;;;5115728;28;20002;-69
2023/05/21 06:18:37;;;;;;;;;;;19.80;78.10;;;;;;5109904;28;19918;-67
2023/05/21 06:21:03;;;;;;;;;;;19.50;79.20;;;;;;5114972;28;20365;-68
2023/05/21 06:23:31;;;;;;;;;;;19.20;79.70;;;;;;5111978;28;19978;-68
2023/05/21 06:25:57;;;;;;;;;;;18.90;80.00;;;;;;5115143;28;19993;-67
2023/05/21 06:28:24;;;;;;;;;;;18.60;80.70;;;;;;5114954;28;19923;-68
2023/05/21 06:30:51;;;;;;;;;;;18.40;81.50;;;;;;5114232;28;19973;-68
2023/05/21 06:33:17;;;;;;;;;;;18.20;81.90;;;;;;5114348;28;20382;-67
2023/05/21 06:35:44;;;;;;;;;;;18.10;81.50;;;;;;5114894;28;19908;-68
2023/05/21 06:38:11;;;;;;;;;;;17.90;81.70;;;;;;5107287;28;19913;-67
2023/05/21 06:40:37;;;;;;;;;;;17.60;81.80;;;;;;5094534;28;19920;-67
2023/05/21 06:43:04;;;;;;;;;;;17.60;82.50;;;;;;5094742;28;19961;-67
2023/05/21 06:45:31;;;;;;;;;;;17.40;83.20;;;;;;5095203;28;19908;-66
2023/05/21 06:47:57;;;;;;;;;;;17.30;83.40;;;;;;5104682;28;19912;-67
2023/05/21 06:50:24;;;;;;;;;;;17.20;83.50;;;;;;5111663;28;20011;-68
2023/05/21 06:52:51;;;;;;;;;;;17.10;83.80;;;;;;5114541;28;19915;-66
2023/05/21 06:55:17;;;;;;;;;;;17.00;84.10;;;;;;5115130;28;19915;-65
2023/05/21 06:57:44;;;;;;;;;;;16.90;85.20;;;;;;5114675;28;19908;-67
2023/05/21 07:00:11;;;;;;;;;;;16.80;84.80;;;;;;5112808;28;19918;-68
2023/05/21 07:02:37;;;;;;;;;;;16.70;85.00;;;;;;5114436;28;19977;-66
2023/05/21 07:05:04;;;;;;;;;;;16.60;85.40;;;;;;5114404;28;19915;-65
2023/05/21 07:07:33;;;;;;;;;;;16.60;85.50;;;;;;5112064;28;20045;-67
2023/05/21 07:10:00;;;;;;;;;;;16.50;85.80;;;;;;5101710;28;19916;-67
2023/05/21 07:12:26;;;;;;;;;;;16.50;86.20;;;;;;5096584;28;20412;-67
2023/05/21 07:14:53;;;;;;;;;;;16.50;85.80;;;;;;5114645;28;19915;-67
2023/05/21 07:17:20;;;;;;;;;;;16.50;86.00;;;;;;5114422;28;19907;-64
2023/05/21 07:19:47;;;;;;;;;;;16.50;86.00;;;;;;5096614;28;19947;-67
2023/05/21 07:22:13;;;;;;;;;;;16.50;86.40;;;;;;5102089;28;20376;-67
2023/05/21 07:24:40;;;;;;;;;;;16.50;86.40;;;;;;5113132;28;20018;-66
2023/05/21 07:27:07;;;;;;;;;;;16.50;86.20;;;;;;5113653;28;19953;-66
2023/05/21 07:29:34;;;;;;;;;;;16.50;86.30;;;;;;5113586;28;20308;-66
2023/05/21 07:32:01;;;;;;;;;;;16.50;86.80;;;;;;5113941;28;19908;-66
2023/05/21 07:34:28;;;;;;;;;;;16.50;86.60;;;;;;5112244;28;19920;-67
2023/05/21 07:36:54;;;;;;;;;;;16.50;86.70;;;;;;5102201;28;19927;-67
2023/05/21 07:39:21;;;;;;;;;;;16.50;86.60;;;;;;5106053;28;20349;-67
2023/05/21 07:41:48;;;;;;;;;;;16.50;87.00;;;;;;5112946;28;19980;-66
2023/05/21 07:44:15;;;;;;;;;;;16.40;86.90;;;;;;5114096;28;20395;-65
2023/05/21 07:46:42;;;;;;;;;;;16.40;87.00;;;;;;5113434;28;19965;-67
2023/05/21 07:49:15;;;;;;;;;;;16.50;86.80;;;;;;5114224;28;19917;-66
2023/05/21 07:51:42;;;;;;;;;;;16.40;87.20;;;;;;5113673;28;19912;-66
2023/05/21 07:54:09;;;;;;;;;;;16.30;87.50;;;;;;5113007;28;19939;-68
2023/05/21 07:56:36;;;;;;;;;;;16.40;87.40;;;;;;5108209;28;19912;-67
2023/05/21 07:59:03;;;;;;;;;;;16.30;87.60;;;;;;5093706;28;19919;-66
2023/05/21 08:01:30;;;;;;;;;;;16.20;88.00;;;;;;5097733;28;20553;-67
2023/05/21 08:03:59;;;;;;;;;;;16.10;88.50;;;;;;5114035;28;19916;-65
2023/05/21 08:06:26;;;;;;;;;;;16.00;88.80;;;;;;5112549;28;20250;-66
2023/05/21 08:08:53;;;;;;;;;;;16.00;88.90;;;;;;5107193;28;19964;-66
2023/05/21 08:11:20;;;;;;;;;;;15.90;88.90;;;;;;5114172;28;19908;-66
2023/05/21 08:13:47;;;;;;;;;;;15.90;89.40;;;;;;5113451;28;19908;-66
2023/05/21 08:16:14;;;;;;;;;;;15.90;89.70;;;;;;5109063;28;19967;-66
2023/05/21 08:18:41;;;;;;;;;;;15.80;90.00;;;;;;5095904;28;19920;-68
2023/05/21 08:21:07;;;;;;;;;;;15.70;90.10;;;;;;5113840;28;19908;-66
2023/05/21 08:23:34;;;;;;;;;;;15.60;90.20;;;;;;5113779;28;19964;-65
2023/05/21 08:26:01;;;;;;;;;;;15.50;90.30;;;;;;5114020;28;19955;-65
2023/05/21 08:28:28;;;;;;;;;;;15.40;90.40;;;;;;5113859;28;19998;-65
2023/05/21 08:30:55;;;;;;;;;;;15.40;90.60;;;;;;5108201;28;20382;-65
2023/05/21 08:33:21;;;;;;;;;;;15.40;90.70;;;;;;5093423;28;19912;-64
2023/05/21 08:35:48;;;;;;;;;;;15.30;90.80;;;;;;5092839;28;19916;-65
2023/05/21 08:38:16;;;;;;;;;;;15.30;90.90;;;;;;5101046;28;20490;-66
2023/05/21 08:40:43;;;;;;;;;;;15.30;91.00;;;;;;5113682;28;19974;-65
2023/05/21 08:43:12;;;;;;;;;;;15.20;91.10;;;;;;5105991;28;19981;-66
2023/05/21 08:45:41;;;;;;;;;;;15.20;91.30;;;;;;5093272;28;19912;-66
2023/05/21 08:48:10;;;;;;;;;;;15.20;91.30;;;;;;5093196;28;19943;-65
2023/05/21 08:50:37;;;;;;;;;;;15.20;91.50;;;;;;5093321;28;19960;-65
2023/05/21 08:53:03;;;;;;;;;;;15.10;91.50;;;;;;5075073;28;19908;-66
2023/05/21 08:55:31;;;;;;;;;;;15.00;91.60;;;;;;5094181;28;19912;-64
2023/05/21 08:57:58;;;;;;;;;;;15.00;91.70;;;;;;5092862;28;19912;-66
2023/05/21 09:00:24;;;;;;;;;;;14.90;91.80;;;;;;5093128;28;19908;-67
2023/05/21 09:02:54;;;;;;;;;;;14.90;92.00;;;;;;5092965;28;19923;-67
2023/05/21 09:05:21;;;;;;;;;;;14.90;92.00;;;;;;5092817;28;19914;-66
2023/05/21 09:07:54;;;;;;;;;;;14.90;92.10;;;;;;5104660;28;19966;-67
2023/05/21 09:10:23;;;;;;;;;;;14.90;92.20;;;;;;5092733;28;19985;-63
2023/05/21 09:12:50;;;;;;;;;;;14.90;92.20;;;;;;5092483;28;19953;-67
2023/05/21 09:15:17;;;;;;;;;;;14.80;92.80;;;;;;5093125;28;20297;-67
2023/05/21 09:17:46;;;;;;;;;;;14.80;92.50;;;;;;5093069;28;19954;-66
2023/05/21 09:20:15;;;;;;;;;;;14.80;92.60;;;;;;5112507;28;19965;-66
2023/05/21 09:22:42;;;;;;;;;;;14.70;92.70;;;;;;5113026;28;19914;-67
2023/05/21 09:25:10;;;;;;;;;;;14.70;92.80;;;;;;5113275;28;19915;-66
2023/05/21 09:27:37;;;;;;;;;;;14.70;93.00;;;;;;5096267;28;20357;-66
2023/05/21 09:30:05;;;;;;;;;;;14.60;93.10;;;;;;5096494;28;19911;-65
2023/05/21 09:32:31;;;;;;;;;;;14.70;93.10;;;;;;5109364;28;19964;-66
2023/05/21 09:35:05;;;;;;;;;;;14.70;93.10;;;;;;5112939;28;20368;-65
2023/05/21 09:37:36;;;;;;;;;;;14.70;93.20;;;;;;5111234;28;19908;-66
2023/05/21 09:40:12;;;;;;;;;;;14.70;93.20;;;;;;5092337;28;19908;-66
2023/05/21 09:42:39;;;;;;;;;;;14.70;93.30;;;;;;5102273;28;20018;-66
2023/05/21 09:45:10;;;;;;;;;;;14.70;93.30;;;;;;5111163;28;20314;-66
2023/05/21 09:47:43;;;;;;;;;;;14.70;93.30;;;;;;5113774;28;19912;-67
2023/05/21 09:50:10;;;;;;;;;;;14.60;93.40;;;;;;5117075;28;19939;-66
2023/05/21 09:52:37;;;;;;;;;;;14.60;93.50;;;;;;5108362;28;19920;-66
2023/05/21 09:55:11;;;;;;;;;;;14.50;93.60;;;;;;5096439;28;19912;-66
2023/05/21 09:57:44;;;;;;;;;;;14.50;93.70;;;;;;5096459;28;20008;-65
2023/05/21 10:00:17;;;;;;;;;;;14.40;93.80;;;;;;5096385;28;19912;-66
2023/05/21 10:02:46;;;;;;;;;;;14.40;94.00;;;;;;5096138;28;19909;-67
2023/05/21 10:05:16;;;;;;;;;;;14.30;94.20;;;;;;5109460;28;19920;-65
2023/05/21 10:07:55;;;;;;;;;;;14.30;94.40;;;;;;5113503;28;19916;-66
2023/05/21 10:10:21;;;;;;;;;;;14.30;94.30;;;;;;5094721;28;20293;-65
2023/05/21 10:12:58;;;;;;;;;;;14.20;94.50;;;;;;5116651;28;19907;-66
2023/05/21 10:15:26;;;;;;;;;;;14.20;94.70;;;;;;5116669;28;19977;-66
2023/05/21 10:17:54;;;;;;;;;;;14.20;94.70;;;;;;5116583;28;19912;-66
2023/05/21 10:20:21;;;;;;;;;;;14.10;94.90;;;;;;5100429;28;19912;-67
2023/05/21 10:22:49;;;;;;;;;;;14.10;95.20;;;;;;5095775;28;19999;-66
2023/05/21 10:25:16;;;;;;;;;;;14.10;95.30;;;;;;5095578;28;19909;-65
2023/05/21 10:27:43;;;;;;;;;;;14.10;95.60;;;;;;5097874;28;19951;-65
2023/05/21 10:30:10;;;;;;;;;;;14.00;95.60;;;;;;5110158;28;20357;-66
2023/05/21 10:32:39;;;;;;;;;;;13.90;95.80;;;;;;5108173;28;19912;-65
2023/05/21 10:35:06;;;;;;;;;;;13.90;95.70;;;;;;5108664;28;19911;-67
2023/05/21 10:37:33;;;;;;;;;;;13.90;95.70;;;;;;5109480;28;20361;-66
2023/05/21 10:40:01;;;;;;;;;;;13.90;95.80;;;;;;5110874;28;19912;-67
2023/05/21 10:42:30;;;;;;;;;;;13.90;95.80;;;;;;5113813;28;20322;-67
2023/05/21 10:45:09;;;;;;;;;;;13.90;95.90;;;;;;5112240;28;20350;-67
2023/05/21 10:47:35;;;;;;;;;;;13.90;95.90;;;;;;5111753;28;19907;-66
2023/05/21 10:50:08;;;;;;;;;;;13.90;95.90;;;;;;5114957;28;20360;-66
2023/05/21 10:52:35;;;;;;;;;;;13.90;96.10;;;;;;5111938;28;19908;-65
2023/05/21 10:55:37;;;;;;;;;;;13.80;96.20;;;;;;5113099;28;19908;-66
2023/05/21 10:58:22;;;;;;;;;;;13.80;96.20;;;;;;5050464;28;20051;-66
2023/05/21 11:00:49;;;;;;;;;;;13.80;96.30;;;;;;5105455;28;19912;-66
2023/05/21 11:03:16;;;;;;;;;;;13.80;96.40;;;;;;5111616;28;19919;-64
2023/05/21 11:05:54;;;;;;;;;;;13.80;96.40;;;;;;5109687;28;19911;-66
2023/05/21 11:08:21;;;;;;;;;;;13.80;96.50;;;;;;5113455;28;19918;-64
2023/05/21 11:10:54;;;;;;;;;;;13.90;96.60;;;;;;5114286;28;19912;-65
2023/05/21 11:13:21;;;;;;;;;;;13.80;96.60;;;;;;5111615;28;19908;-63
2023/05/21 11:15:57;;;;;;;;;;;13.80;96.50;;;;;;5112608;28;20327;-66
2023/05/21 11:18:43;;;;;;;;;;;13.80;96.60;;;;;;5112982;28;19916;-64
2023/05/21 11:21:16;;;;;;;;;;;13.80;96.60;;;;;;5114122;28;19908;-65
2023/05/21 11:23:56;;;;;;;;;;;13.80;96.50;;;;;;5113382;28;19920;-64
2023/05/21 11:26:23;;;;;;;;;;;13.80;96.50;;;;;;5114846;28;19912;-65
2023/05/21 11:29:05;;;;;;;;;;;13.90;96.70;;;;;;5114570;28;19916;-64
2023/05/21 11:31:41;;;;;;;;;;;13.80;96.60;;;;;;5112035;28;19955;-65
2023/05/21 11:34:08;;;;;;;;;;;13.90;96.70;;;;;;5114967;28;19911;-64
2023/05/21 11:36:36;;;;;;;;;;;13.80;96.80;;;;;;5103214;28;20254;-65
2023/05/21 11:39:14;;;;;;;;;;;13.80;96.80;;;;;;5109799;28;20437;-66
2023/05/21 11:41:50;;;;;;;;;;;13.80;96.80;;;;;;5103734;28;19920;-66
2023/05/21 11:44:17;;;;;;;;;;;13.80;96.90;;;;;;5093791;28;20335;-66
2023/05/21 11:46:44;;;;;;;;;;;13.80;96.90;;;;;;5093530;28;20066;-66
2023/05/21 11:49:11;;;;;;;;;;;13.80;96.90;;;;;;5093674;28;19908;-66
2023/05/21 11:51:39;;;;;;;;;;;13.80;96.90;;;;;;5084385;28;19977;-65
2023/05/21 11:54:08;;;;;;;;;;;13.90;96.90;;;;;;5114155;28;19915;-66
2023/05/21 11:56:35;;;;;;;;;;;13.80;96.90;;;;;;5113933;28;19961;-66
2023/05/21 11:59:02;;;;;;;;;;;13.80;96.80;;;;;;5113914;28;19908;-65
2023/05/21 12:01:30;;;;;;;;;;;13.90;96.90;;;;;;5113425;28;19918;-66
2023/05/21 12:03:56;;;;;;;;;;;13.80;97.00;;;;;;5102468;28;19920;-66
2023/05/21 12:06:26;;;;;;;;;;;13.80;97.10;;;;;;5100910;28;19991;-66
2023/05/21 12:08:56;;;;;;;;;;;13.70;97.10;;;;;;5113071;28;19976;-65
2023/05/21 12:11:23;;;;;;;;;;;13.80;97.10;;;;;;5113258;28;19943;-66
2023/05/21 12:13:50;;;;;;;;;;;13.80;97.10;;;;;;5113591;28;19908;-65
2023/05/21 12:16:17;;;;;;;;;;;13.70;97.20;;;;;;5101799;28;19912;-65
2023/05/21 12:18:44;;;;;;;;;;;13.70;97.30;;;;;;5093620;28;19908;-65
2023/05/21 12:21:10;;;;;;;;;;;13.70;97.20;;;;;;5093723;28;19908;-65
2023/05/21 12:23:37;;;;;;;;;;;13.70;97.30;;;;;;5103303;28;19923;-65
2023/05/21 12:26:04;;;;;;;;;;;13.70;97.30;;;;;;5113960;28;19914;-64
2023/05/21 12:28:31;;;;;;;;;;;13.70;97.40;;;;;;5101335;28;20353;-65
2023/05/21 12:30:57;;;;;;;;;;;13.60;97.50;;;;;;5108250;28;19934;-65
2023/05/21 12:33:24;;;;;;;;;;;13.60;97.60;;;;;;5113473;28;19943;-66
2023/05/21 12:35:51;;;;;;;;;;;13.60;97.90;;;;;;5110489;28;19912;-66
2023/05/21 12:38:18;;;;;;;;;;;13.60;97.80;;;;;;5107772;28;20006;-66
2023/05/21 12:40:45;;;;;;;;;;;13.50;97.90;;;;;;5113276;28;19920;-66
2023/05/21 12:43:11;;;;;;;;;;;13.50;98.20;;;;;;5104376;28;19920;-66
2023/05/21 12:45:38;;;;;;;;;;;13.40;98.40;;;;;;5093237;28;19929;-65
2023/05/21 12:48:05;;;;;;;;;;;13.30;98.60;;;;;;5105112;28;20003;-66
2023/05/21 12:50:32;;;;;;;;;;;13.30;98.60;;;;;;5113494;28;19907;-67
2023/05/21 12:52:59;;;;;;;;;;;13.20;98.80;;;;;;5113506;28;19908;-66
2023/05/21 12:55:26;;;;;;;;;;;13.20;99.00;;;;;;5113599;28;19907;-66
2023/05/21 12:58:07;;;;;;;;;;;13.10;99.20;;;;;;5113235;28;19908;-66
2023/05/21 13:00:33;;;;;;;;;;;13.10;99.20;;;;;;5102320;28;19965;-67
2023/05/21 13:03:03;;;;;;;;;;;13.10;99.60;;;;;;5092846;28;19916;-67
2023/05/21 13:05:29;;;;;;;;;;;12.90;99.80;;;;;;5092940;28;19912;-64
2023/05/21 13:07:56;;;;;;;;;;;12.90;99.90;;;;;;5093157;28;19912;-65
2023/05/21 13:10:23;;;;;;;;;;;12.90;99.90;;;;;;5093447;28;20273;-66
2023/05/21 13:12:49;;;;;;;;;;;12.80;99.90;;;;;;5093627;28;20376;-66
2023/05/21 13:15:16;;;;;;;;;;;12.80;99.90;;;;;;5093075;28;19915;-66
2023/05/21 13:17:43;;;;;;;;;;;12.70;99.90;;;;;;5093038;28;20381;-65
2023/05/21 13:20:19;;;;;;;;;;;12.70;99.90;;;;;;5092884;28;19931;-66
2023/05/21 13:22:46;;;;;;;;;;;12.70;99.90;;;;;;5094736;28;19916;-66
2023/05/21 13:25:19;;;;;;;;;;;12.70;99.90;;;;;;5117036;28;19912;-65
2023/05/21 13:27:46;;;;;;;;;;;12.70;99.90;;;;;;5114573;28;19912;-66
2023/05/21 13:30:13;;;;;;;;;;;12.60;99.90;;;;;;5117648;28;19908;-66
2023/05/21 13:32:41;;;;;;;;;;;12.60;99.90;;;;;;5117439;28;19908;-67
2023/05/21 13:35:08;;;;;;;;;;;12.60;99.90;;;;;;5113986;28;19912;-66
2023/05/21 13:37:35;;;;;;;;;;;12.60;99.90;;;;;;5097694;28;20280;-66
2023/05/21 13:40:05;;;;;;;;;;;12.60;99.90;;;;;;5096787;28;19908;-65
2023/05/21 13:42:32;;;;;;;;;;;12.60;99.90;;;;;;5096931;28;20085;-66
2023/05/21 13:44:59;;;;;;;;;;;12.60;99.90;;;;;;5096745;28;19920;-66
2023/05/21 13:47:26;;;;;;;;;;;12.50;99.90;;;;;;5101591;28;19912;-66
2023/05/21 13:49:52;;;;;;;;;;;12.50;99.90;;;;;;5116967;28;19915;-65
2023/05/21 13:52:20;;;;;;;;;;;12.50;99.90;;;;;;5116743;28;19918;-66
2023/05/21 13:54:47;;;;;;;;;;;12.50;99.90;;;;;;5114342;28;19912;-67
2023/05/21 13:57:14;;;;;;;;;;;12.50;99.90;;;;;;5098334;28;19927;-66
2023/05/21 13:59:41;;;;;;;;;;;12.40;99.90;;;;;;5116513;28;19908;-65
2023/05/21 14:02:08;;;;;;;;;;;12.50;99.90;;;;;;5116649;28;19908;-65
2023/05/21 14:04:35;;;;;;;;;;;12.50;99.90;;;;;;5116602;28;19922;-65
2023/05/21 14:07:02;;;;;;;;;;;12.50;99.90;;;;;;5107771;28;19912;-65
2023/05/21 14:09:29;;;;;;;;;;;12.50;99.90;;;;;;5101849;28;19912;-66
2023/05/21 14:11:57;;;;;;;;;;;12.60;99.90;;;;;;5116555;28;20012;-65
2023/05/21 14:14:24;;;;;;;;;;;12.50;99.90;;;;;;5116670;28;19908;-66
2023/05/21 14:16:51;;;;;;;;;;;12.50;99.90;;;;;;5115004;28;19913;-67
2023/05/21 14:19:18;;;;;;;;;;;12.60;99.90;;;;;;5095974;28;19969;-65